Time;durP1;ratioP1;P1;durP2;ratioP2;P2;SDS_P1;SDS_P2;PMS_P1;PMS_P2;Temp;Humidity;BMP_temperature;BMP_pressure;BME280_temperature;BME280_humidity;BME280_pressure;Samples;Min_cycle;Max_cycle;Signal;HPM_P1;HPM_P2
2021/03/25 00:00:52;;;;;;;7.20;3.37;;;;;;;1.02;100.00;94270.16;5094357;28;20233;-77
2021/03/25 00:03:20;;;;;;;9.80;3.40;;;;;;;1.02;100.00;94259.06;5094474;28;20198;-78
2021/03/25 00:05:48;;;;;;;6.30;3.37;;;;;;;1.04;100.00;94267.47;5094203;28;20201;-78
2021/03/25 00:08:18;;;;;;;7.35;3.70;;;;;;;1.04;100.00;94263.13;5093568;28;20923;-77
2021/03/25 00:10:45;;;;;;;5.93;3.30;;;;;;;0.98;100.00;94258.50;5094130;28;20201;-78
2021/03/25 00:13:11;;;;;;;6.77;3.30;;;;;;;0.95;100.00;94257.94;5094245;28;20202;-78
2021/03/25 00:15:39;;;;;;;6.70;3.27;;;;;;;0.94;100.00;94257.16;5093983;28;20206;-77
2021/03/25 00:18:06;;;;;;;7.17;3.60;;;;;;;0.83;100.00;94260.59;5093846;28;20206;-77
2021/03/25 00:20:33;;;;;;;6.63;3.30;;;;;;;0.79;100.00;94254.09;5093607;28;20280;-78
2021/03/25 00:23:00;;;;;;;8.10;3.27;;;;;;;0.80;100.00;94252.34;5093803;28;20683;-77
2021/03/25 00:25:28;;;;;;;9.13;3.27;;;;;;;0.80;100.00;94257.47;5093872;28;20267;-77
2021/03/25 00:27:54;;;;;;;10.33;3.60;;;;;;;0.90;100.00;94248.06;5093876;28;20217;-77
2021/03/25 00:30:22;;;;;;;11.10;3.87;;;;;;;0.97;100.00;94253.50;5093880;28;20194;-78
2021/03/25 00:32:49;;;;;;;7.40;3.33;;;;;;;0.90;100.00;94251.44;5093604;28;20201;-77
2021/03/25 00:35:15;;;;;;;7.57;3.73;;;;;;;0.92;100.00;94243.63;5093550;28;20213;-77
2021/03/25 00:37:42;;;;;;;5.60;3.63;;;;;;;0.80;100.00;94244.63;5093782;28;20285;-78
2021/03/25 00:40:10;;;;;;;6.47;3.43;;;;;;;0.62;100.00;94242.69;5093425;28;20229;-77
2021/03/25 00:42:36;;;;;;;9.57;4.17;;;;;;;0.68;100.00;94239.59;5093301;28;20687;-77
2021/03/25 00:45:04;;;;;;;8.67;4.10;;;;;;;0.77;100.00;94230.31;5093480;28;20210;-78
2021/03/25 00:47:30;;;;;;;10.30;3.93;;;;;;;0.82;100.00;94228.16;5093398;28;20657;-77
2021/03/25 00:49:56;;;;;;;6.27;3.37;;;;;;;0.74;100.00;94241.63;5093015;28;20247;-76
2021/03/25 00:52:22;;;;;;;8.43;3.37;;;;;;;0.77;100.00;94237.19;5092862;28;20656;-76
2021/03/25 00:54:49;;;;;;;7.23;3.97;;;;;;;0.85;100.00;94232.19;5093514;28;20194;-76
2021/03/25 00:57:15;;;;;;;11.57;3.70;;;;;;;0.90;100.00;94230.09;5093380;28;20197;-77
2021/03/25 00:59:41;;;;;;;9.80;3.30;;;;;;;0.99;100.00;94231.84;5093158;28;20202;-77
2021/03/25 01:02:07;;;;;;;5.10;3.50;;;;;;;0.96;100.00;94228.75;5093302;28;20624;-77
2021/03/25 01:04:33;;;;;;;9.55;4.05;;;;;;;0.76;100.00;94222.72;5092616;28;20448;-77
2021/03/25 01:06:58;;;;;;;7.70;4.10;;;;;;;0.67;100.00;94224.31;5093203;28;20206;-77
2021/03/25 01:09:27;;;;;;;7.03;3.37;;;;;;;0.64;100.00;94227.94;5093059;28;20194;-77
2021/03/25 01:11:56;;;;;;;11.57;4.20;;;;;;;0.68;100.00;94229.31;5093259;28;20209;-78
2021/03/25 01:14:27;;;;;;;7.70;3.53;;;;;;;0.64;100.00;94225.38;5093037;28;20665;-77
2021/03/25 01:16:54;;;;;;;7.73;3.87;;;;;;;0.67;100.00;94219.19;5092924;28;20652;-77
2021/03/25 01:19:25;;;;;;;8.23;4.00;;;;;;;0.60;100.00;94212.91;5092992;28;20221;-77
2021/03/25 01:21:52;;;;;;;5.70;3.70;;;;;;;0.51;100.00;94212.72;5093050;28;20229;-77
2021/03/25 01:24:18;;;;;;;13.97;4.20;;;;;;;0.60;100.00;94218.88;5092938;28;20209;-77
2021/03/25 01:26:44;;;;;;;10.13;3.97;;;;;;;0.67;100.00;94214.84;5092994;28;20197;-77
2021/03/25 01:29:11;;;;;;;10.30;3.70;;;;;;;0.65;100.00;94209.03;5092929;28;20206;-77
2021/03/25 01:31:37;;;;;;;10.73;4.23;;;;;;;0.63;100.00;94212.66;5092806;28;20206;-78
2021/03/25 01:34:06;;;;;;;9.87;3.27;;;;;;;0.64;100.00;94212.53;5093039;28;20251;-77
2021/03/25 01:36:32;;;;;;;7.20;3.57;;;;;;;0.66;100.00;94208.06;5092879;28;20198;-77
2021/03/25 01:38:58;;;;;;;8.73;3.63;;;;;;;0.62;100.00;94208.47;5092943;28;20208;-77
2021/03/25 01:41:28;;;;;;;9.30;3.97;;;;;;;0.65;100.00;94203.88;5092876;28;20257;-78
2021/03/25 01:43:54;;;;;;;12.17;4.10;;;;;;;0.64;100.00;94204.00;5093065;28;20221;-77
2021/03/25 01:46:24;;;;;;;9.20;4.10;;;;;;;0.66;100.00;94202.13;5092588;28;20198;-77
2021/03/25 01:48:52;;;;;;;8.37;4.03;;;;;;;0.61;100.00;94192.22;5092957;28;20206;-77
2021/03/25 01:51:31;;;;;;;10.25;4.20;;;;;;;0.58;100.00;94199.38;5092426;28;20466;-78
2021/03/25 01:54:29;;;;;;;10.07;4.17;;;;;;;0.61;100.00;94194.78;5092611;28;20197;-77
2021/03/25 01:57:36;;;;;;;8.73;4.20;;;;;;;0.56;100.00;94194.38;5085891;28;20202;-76
2021/03/25 02:00:12;;;;;;;8.00;3.90;;;;;;;0.48;100.00;94187.34;5074593;28;20790;-77
2021/03/25 02:02:45;;;;;;;8.83;4.03;;;;;;;0.42;100.00;94192.13;5095239;28;20660;-77
2021/03/25 02:05:21;;;;;;;8.00;3.60;;;;;;;0.32;100.00;94180.09;5096861;28;20228;-76
2021/03/25 02:07:59;;;;;;;9.30;3.90;;;;;;;0.26;100.00;94184.91;5096623;28;20606;-77
2021/03/25 02:10:33;;;;;;;9.37;3.57;;;;;;;0.24;100.00;94182.47;5096370;28;20208;-76
2021/03/25 02:13:07;;;;;;;7.87;3.30;;;;;;;0.34;100.00;94178.19;5096471;28;20616;-76
2021/03/25 02:15:38;;;;;;;9.33;3.43;;;;;;;0.37;100.00;94174.56;5096193;28;20209;-77
2021/03/25 02:18:12;;;;;;;12.90;4.13;;;;;;;0.40;100.00;94170.91;5096326;28;20258;-76
2021/03/25 02:21:08;;;;;;;8.53;3.60;;;;;;;0.45;100.00;94168.78;5095911;28;20241;-76
2021/03/25 02:23:52;;;;;;;8.33;3.40;;;;;;;0.35;100.00;94168.72;5096097;28;20432;-76
2021/03/25 02:26:24;;;;;;;8.90;3.50;;;;;;;0.33;100.00;94161.19;5096402;28;20254;-76
2021/03/25 02:29:13;;;;;;;9.60;3.73;;;;;;;0.32;100.00;94163.88;5096257;28;20202;-76
2021/03/25 02:31:44;;;;;;;6.63;3.20;;;;;;;0.29;100.00;94162.38;5095876;28;20202;-76
2021/03/25 02:34:15;;;;;;;6.63;2.90;;;;;;;0.25;100.00;94163.56;5095941;28;20718;-76
2021/03/25 02:36:52;;;;;;;8.57;3.37;;;;;;;0.38;100.00;94162.53;5096026;28;20202;-77
2021/03/25 02:39:26;;;;;;;7.00;3.67;;;;;;;0.36;100.00;94158.31;5096133;28;20327;-77
2021/03/25 02:41:57;;;;;;;7.30;3.07;;;;;;;0.33;100.00;94166.31;5095960;28;20233;-77
2021/03/25 02:44:29;;;;;;;11.90;3.33;;;;;;;0.29;100.00;94159.78;5094989;28;20649;-77
2021/03/25 02:47:04;;;;;;;6.40;3.03;;;;;;;0.38;100.00;94162.53;5096084;28;20202;-77
2021/03/25 02:49:36;;;;;;;6.83;2.83;;;;;;;0.46;100.00;94165.28;5095536;28;20194;-77
2021/03/25 02:52:07;;;;;;;6.90;2.87;;;;;;;0.43;100.00;94160.38;5095851;28;20203;-77
2021/03/25 02:54:34;;;;;;;8.87;2.60;;;;;;;0.45;100.00;94163.63;5095617;28;20668;-76
2021/03/25 02:57:09;;;;;;;5.63;2.83;;;;;;;0.41;100.00;94154.56;5095370;28;20194;-77
2021/03/25 02:59:39;;;;;;;7.28;3.55;;;;;;;0.38;100.00;94153.06;5095156;28;20444;-76
2021/03/25 03:02:14;;;;;;;7.70;2.90;;;;;;;0.26;100.00;94154.91;5095170;28;20296;-77
2021/03/25 03:04:42;;;;;;;6.57;3.03;;;;;;;0.21;100.00;94149.34;5095413;28;20259;-77
2021/03/25 03:07:12;;;;;;;5.37;2.33;;;;;;;0.18;100.00;94154.75;5095360;28;20202;-77
2021/03/25 03:09:42;;;;;;;9.73;3.30;;;;;;;0.14;100.00;94151.63;5095479;28;20209;-77
2021/03/25 03:12:13;;;;;;;9.53;3.33;;;;;;;0.12;100.00;94150.94;5095157;28;20205;-78
2021/03/25 03:14:41;;;;;;;5.00;2.30;;;;;;;0.15;100.00;94157.56;5095307;28;20217;-77
2021/03/25 03:17:13;;;;;;;10.03;3.40;;;;;;;0.17;100.00;94155.69;5095201;28;20205;-77
2021/03/25 03:19:45;;;;;;;7.97;3.10;;;;;;;0.21;100.00;94156.25;5094835;28;20230;-77
2021/03/25 03:22:11;;;;;;;4.83;2.60;;;;;;;0.11;100.00;94151.06;5095049;28;20592;-77
2021/03/25 03:24:38;;;;;;;3.53;2.43;;;;;;;0.08;100.00;94156.44;5095049;28;20205;-78
2021/03/25 03:27:10;;;;;;;13.87;3.13;;;;;;;0.09;100.00;94158.88;5095066;28;20209;-77
2021/03/25 03:29:38;;;;;;;5.80;2.83;;;;;;;0.14;100.00;94150.81;5094914;28;20668;-77
2021/03/25 03:32:11;;;;;;;4.27;2.53;;;;;;;0.16;100.00;94160.00;5094837;28;20221;-76
2021/03/25 03:34:41;;;;;;;5.87;2.73;;;;;;;0.17;100.00;94150.56;5094755;28;20197;-78
2021/03/25 03:37:13;;;;;;;3.87;2.30;;;;;;;0.12;100.00;94153.50;5094852;28;20237;-76
2021/03/25 03:39:41;;;;;;;5.30;2.57;;;;;;;0.14;100.00;94153.38;5094884;28;20201;-76
2021/03/25 03:42:11;;;;;;;3.90;2.07;;;;;;;0.26;100.00;94149.78;5094596;28;20232;-76
2021/03/25 03:44:42;;;;;;;5.83;2.37;;;;;;;0.34;100.00;94149.16;5094528;28;20207;-76
2021/03/25 03:47:09;;;;;;;5.53;2.50;;;;;;;0.30;100.00;94151.16;5094493;28;20201;-76
2021/03/25 03:49:41;;;;;;;7.07;2.63;;;;;;;0.34;100.00;94146.56;5094790;28;20244;-76
2021/03/25 03:52:12;;;;;;;7.30;2.90;;;;;;;0.39;100.00;94144.44;5094503;28;20202;-76
2021/03/25 03:54:39;;;;;;;6.30;3.35;;;;;;;0.35;100.00;94145.63;5093382;28;20974;-77
2021/03/25 03:57:13;;;;;;;5.17;2.70;;;;;;;0.32;100.00;94138.19;5094511;28;20251;-77
2021/03/25 03:59:47;;;;;;;4.47;2.67;;;;;;;0.24;100.00;94146.53;5094322;28;20201;-76
2021/03/25 04:02:23;;;;;;;6.70;3.00;;;;;;;0.21;100.00;94141.66;5093915;28;20465;-77
2021/03/25 04:04:56;;;;;;;5.60;2.90;;;;;;;0.21;100.00;94133.16;5094352;28;20569;-77
2021/03/25 04:07:28;;;;;;;6.97;3.33;;;;;;;0.20;100.00;94144.34;5094441;28;20209;-77
2021/03/25 04:10:03;;;;;;;6.47;2.70;;;;;;;0.23;100.00;94139.75;5093939;28;20205;-76
2021/03/25 04:12:33;;;;;;;5.73;3.10;;;;;;;0.31;100.00;94134.78;5094178;28;20208;-77
2021/03/25 04:15:09;;;;;;;5.83;3.13;;;;;;;0.33;100.00;94139.81;5094056;28;20656;-77
2021/03/25 04:17:39;;;;;;;5.23;2.77;;;;;;;0.34;100.00;94134.53;5094012;28;20208;-76
2021/03/25 04:20:09;;;;;;;6.03;2.57;;;;;;;0.49;100.00;94134.19;5093711;28;20242;-76
2021/03/25 04:22:40;;;;;;;6.57;3.30;;;;;;;0.40;100.00;94142.66;5094181;28;20210;-76
2021/03/25 04:25:10;;;;;;;5.87;2.87;;;;;;;0.38;100.00;94140.22;5093104;28;20672;-77
2021/03/25 04:27:42;;;;;;;5.83;2.70;;;;;;;0.33;100.00;94135.50;5094106;28;20498;-77
2021/03/25 04:30:11;;;;;;;5.93;2.60;;;;;;;0.32;100.00;94143.34;5093832;28;20202;-77
2021/03/25 04:32:37;;;;;;;8.17;3.20;;;;;;;0.33;100.00;94135.50;5093639;28;20238;-77
2021/03/25 04:35:07;;;;;;;4.73;2.77;;;;;;;0.39;100.00;94133.34;5093594;28;20676;-77
2021/03/25 04:37:33;;;;;;;8.13;2.83;;;;;;;0.46;100.00;94139.59;5093822;28;20201;-76
2021/03/25 04:40:01;;;;;;;5.97;2.80;;;;;;;0.47;100.00;94138.66;5093767;28;20244;-76
2021/03/25 04:42:28;;;;;;;7.37;3.00;;;;;;;0.41;100.00;94139.97;5093358;28;20198;-76
2021/03/25 04:45:03;;;;;;;7.57;2.80;;;;;;;0.27;100.00;94143.72;5093264;28;20193;-78
2021/03/25 04:47:33;;;;;;;7.07;2.43;;;;;;;0.24;100.00;94143.16;5093332;28;20306;-76
2021/03/25 04:50:05;;;;;;;4.50;2.80;;;;;;;0.15;100.00;94147.28;5093758;28;20201;-78
2021/03/25 04:52:34;;;;;;;6.47;2.60;;;;;;;0.06;100.00;94148.06;5093372;28;20664;-78
2021/03/25 04:55:06;;;;;;;9.32;3.65;;;;;;;0.11;100.00;94140.78;5092421;28;20795;-76
2021/03/25 04:57:35;;;;;;;6.47;2.70;;;;;;;0.14;100.00;94140.53;5093407;28;20202;-77
2021/03/25 05:00:08;;;;;;;5.40;2.77;;;;;;;0.27;100.00;94133.44;5093132;28;20206;-77
2021/03/25 05:02:35;;;;;;;7.67;2.87;;;;;;;0.17;100.00;94141.09;5093321;28;20198;-76
2021/03/25 05:05:03;;;;;;;5.23;2.87;;;;;;;0.17;100.00;94146.22;5093120;28;20553;-76
2021/03/25 05:07:34;;;;;;;6.83;3.10;;;;;;;0.14;100.00;94145.69;5093224;28;20278;-77
2021/03/25 05:10:01;;;;;;;9.27;3.03;;;;;;;0.15;100.00;94147.28;5093252;28;20247;-77
2021/03/25 05:12:28;;;;;;;7.20;3.20;;;;;;;0.19;100.00;94151.25;5092871;28;20202;-77
2021/03/25 05:15:05;;;;;;;4.57;2.17;;;;;;;0.22;100.00;94147.59;5093263;28;20204;-76
2021/03/25 05:17:36;;;;;;;8.90;3.03;;;;;;;0.36;100.00;94135.22;5093210;28;20254;-77
2021/03/25 05:20:10;;;;;;;4.93;2.40;;;;;;;0.42;100.00;94141.59;5092995;28;20230;-77
2021/03/25 05:22:44;;;;;;;4.47;2.50;;;;;;;0.46;100.00;94145.53;5092934;28;20561;-76
2021/03/25 05:25:15;;;;;;;8.97;2.43;;;;;;;0.50;100.00;94156.34;5093021;28;20333;-77
2021/03/25 05:27:46;;;;;;;5.83;2.57;;;;;;;0.51;100.00;94152.84;5092992;28;20201;-77
2021/03/25 05:30:17;;;;;;;4.47;2.70;;;;;;;0.45;100.00;94153.38;5093051;28;20198;-77
2021/03/25 05:32:47;;;;;;;8.83;3.03;;;;;;;0.59;100.00;94159.91;5092951;28;20194;-76
2021/03/25 05:35:17;;;;;;;6.40;2.80;;;;;;;0.58;100.00;94158.28;5093035;28;20473;-76
2021/03/25 05:37:46;;;;;;;6.87;3.13;;;;;;;0.54;100.00;94163.69;5097063;28;20660;-77
2021/03/25 05:40:19;;;;;;;4.57;2.70;;;;;;;0.61;100.00;94158.84;5096918;28;20212;-76
2021/03/25 05:42:54;;;;;;;5.73;2.73;;;;;;;0.64;100.00;94158.56;5097007;28;20714;-76
2021/03/25 05:45:30;;;;;;;5.27;2.83;;;;;;;0.74;100.00;94161.97;5096991;28;20600;-76
2021/03/25 05:48:15;;;;;;;4.60;2.73;;;;;;;0.87;100.00;94160.94;5096772;28;20247;-77
2021/03/25 05:50:51;;;;;;;6.97;3.07;;;;;;;0.89;100.00;94161.63;5093480;28;20198;-77
2021/03/25 05:53:40;;;;;;;4.30;2.60;;;;;;;1.12;100.00;94159.63;5096895;28;20248;-76
2021/03/25 05:56:15;;;;;;;5.07;2.20;;;;;;;1.02;100.00;94167.34;5096658;28;20241;-77
2021/03/25 05:58:45;;;;;;;7.43;2.30;;;;;;;1.20;100.00;94164.09;5096597;28;20197;-76
2021/03/25 06:01:31;;;;;;;5.03;2.60;;;;;;;1.28;100.00;94166.81;5096468;28;20718;-77
2021/03/25 06:04:01;;;;;;;7.00;2.67;;;;;;;1.40;100.00;94165.75;5096689;28;20213;-76
2021/03/25 06:06:53;;;;;;;4.87;2.40;;;;;;;1.53;100.00;94173.19;5096318;28;20201;-76
2021/03/25 06:09:33;;;;;;;6.53;2.97;;;;;;;1.63;100.00;94175.75;5096673;28;20205;-76
2021/03/25 06:12:05;;;;;;;5.23;2.53;;;;;;;1.65;100.00;94168.75;5096562;28;20210;-76
2021/03/25 06:14:47;;;;;;;5.40;2.50;;;;;;;1.72;100.00;94174.97;5096393;28;20255;-76
2021/03/25 06:17:28;;;;;;;6.63;3.00;;;;;;;1.83;100.00;94172.25;5096595;28;20194;-76
2021/03/25 06:20:12;;;;;;;4.47;2.60;;;;;;;1.95;100.00;94180.63;5096091;28;20230;-76
2021/03/25 06:22:47;;;;;;;5.03;2.60;;;;;;;1.98;100.00;94174.38;5096344;28;20206;-77
2021/03/25 06:25:38;;;;;;;7.37;3.00;;;;;;;2.10;100.00;94169.88;5096189;28;20632;-76
2021/03/25 06:28:29;;;;;;;4.30;2.40;;;;;;;2.17;100.00;94179.50;5096318;28;20213;-76
2021/03/25 06:31:13;;;;;;;6.87;2.80;;;;;;;2.33;100.00;94173.78;5096108;28;20206;-76
2021/03/25 06:33:47;;;;;;;9.30;3.53;;;;;;;2.53;100.00;94177.09;5095422;28;20217;-76
2021/03/25 06:36:17;;;;;;;14.03;5.20;;;;;;;2.52;100.00;94178.03;5075976;28;20202;-78
2021/03/25 06:38:48;;;;;;;14.63;5.93;;;;;;;2.68;100.00;94176.63;5075635;28;20439;-76
2021/03/25 06:41:24;;;;;;;14.50;5.53;;;;;;;2.86;100.00;94185.22;5075676;28;20218;-75
2021/03/25 06:43:55;;;;;;;8.90;4.00;;;;;;;2.99;100.00;94184.09;5075524;28;20203;-76
2021/03/25 06:46:26;;;;;;;7.57;3.10;;;;;;;3.19;100.00;94179.63;5075483;28;20202;-76
2021/03/25 06:48:54;;;;;;;7.10;2.60;;;;;;;3.34;100.00;94180.75;5074989;28;20199;-76
2021/03/25 06:51:24;;;;;;;4.93;2.77;;;;;;;3.57;100.00;94183.72;5075445;28;20207;-77
2021/03/25 06:53:52;;;;;;;5.60;2.30;;;;;;;3.73;100.00;94180.47;5075547;28;20293;-76
2021/03/25 06:56:28;;;;;;;4.20;2.37;;;;;;;3.91;100.00;94183.00;5075335;28;20202;-78
2021/03/25 06:58:58;;;;;;;4.57;2.33;;;;;;;4.08;100.00;94177.03;5075291;28;20205;-79
2021/03/25 07:01:31;;;;;;;4.80;2.30;;;;;;;4.30;100.00;94180.09;5075142;28;20226;-78
2021/03/25 07:04:01;;;;;;;5.63;2.10;;;;;;;4.69;100.00;94178.84;5075187;28;20226;-76
2021/03/25 07:06:30;;;;;;;4.30;2.27;;;;;;;4.90;100.00;94181.84;5075104;28;20213;-77
2021/03/25 07:08:57;;;;;;;5.50;2.30;;;;;;;5.23;100.00;94186.31;5075055;28;20210;-76
2021/03/25 07:11:27;;;;;;;4.63;2.17;;;;;;;5.56;96.46;94176.84;5075053;28;20202;-76
2021/03/25 07:13:59;;;;;;;2.33;1.83;;;;;;;5.74;95.68;94184.47;5074882;28;20669;-77
2021/03/25 07:16:27;;;;;;;3.73;1.83;;;;;;;5.85;95.18;94173.81;5075039;28;20661;-76
2021/03/25 07:18:59;;;;;;;5.20;2.10;;;;;;;6.04;93.72;94175.28;5074868;28;20234;-76
2021/03/25 07:21:31;;;;;;;4.87;2.40;;;;;;;6.29;91.53;94183.88;5074767;28;20226;-78
2021/03/25 07:24:00;;;;;;;2.77;1.63;;;;;;;6.57;91.73;94175.72;5074844;28;20190;-77
2021/03/25 07:26:34;;;;;;;2.63;1.83;;;;;;;6.84;91.47;94176.28;5074743;28;20689;-76
2021/03/25 07:29:05;;;;;;;3.33;2.10;;;;;;;7.13;89.95;94195.66;5074797;28;20209;-76
2021/03/25 07:31:35;;;;;;;7.13;1.70;;;;;;;7.40;88.97;94186.59;5074823;28;20194;-77
2021/03/25 07:34:01;;;;;;;3.10;1.80;;;;;;;7.71;87.63;94185.75;5074588;28;20207;-76
2021/03/25 07:36:28;;;;;;;3.97;2.17;;;;;;;7.99;86.00;94186.03;5074790;28;20202;-77
2021/03/25 07:39:04;;;;;;;4.77;2.10;;;;;;;8.28;84.08;94184.53;5074680;28;20557;-76
2021/03/25 07:41:34;;;;;;;10.67;2.90;;;;;;;8.54;83.11;94185.94;5074587;28;20233;-77
2021/03/25 07:44:03;;;;;;;4.70;1.83;;;;;;;8.81;81.72;94193.16;5074333;28;20244;-77
2021/03/25 07:46:35;;;;;;;3.87;2.00;;;;;;;9.06;80.72;94195.50;5074299;28;20206;-76
2021/03/25 07:49:07;;;;;;;7.40;1.93;;;;;;;9.28;80.20;94196.38;5074653;28;20205;-79
2021/03/25 07:51:45;;;;;;;4.50;1.97;;;;;;;9.53;79.76;94196.06;5074436;28;20351;-78
2021/03/25 07:54:14;;;;;;;3.63;1.70;;;;;;;9.78;75.92;94193.94;5074113;28;20646;-76
2021/03/25 07:56:59;;;;;;;6.47;2.40;;;;;;;10.10;66.53;94199.66;5074178;28;20206;-77
2021/03/25 07:59:37;;;;;;;3.87;1.93;;;;;;;10.40;73.80;94187.28;5073264;28;20199;-79
2021/03/25 08:02:04;;;;;;;7.23;1.93;;;;;;;10.43;69.32;94188.72;5074004;28;20230;-77
2021/03/25 08:04:32;;;;;;;3.33;1.83;;;;;;;10.55;68.54;94193.22;5073984;28;20665;-77
2021/03/25 08:07:03;;;;;;;8.50;2.70;;;;;;;10.68;58.27;94197.72;5073658;28;20438;-76
2021/03/25 08:09:40;;;;;;;8.30;3.00;;;;;;;10.82;56.02;94197.81;5073737;28;20203;-77
2021/03/25 08:12:17;;;;;;;8.47;2.60;;;;;;;10.96;56.68;94196.09;5074060;28;20217;-78
2021/03/25 08:14:44;;;;;;;4.80;2.40;;;;;;;11.01;59.06;94191.91;5073989;28;20206;-78
2021/03/25 08:17:20;;;;;;;8.30;2.77;;;;;;;11.29;61.85;94185.81;5073864;28;20195;-77
2021/03/25 08:19:55;;;;;;;9.97;2.80;;;;;;;11.31;59.22;94186.44;5073516;28;20238;-78
2021/03/25 08:22:50;;;;;;;6.97;2.87;;;;;;;11.48;58.31;94187.69;5073670;28;20229;-78
2021/03/25 08:25:25;;;;;;;6.90;2.80;;;;;;;11.65;58.64;94184.75;5073615;28;20738;-76
2021/03/25 08:28:01;;;;;;;6.80;2.80;;;;;;;11.63;58.54;94184.94;5073591;28;20660;-76
2021/03/25 08:30:50;;;;;;;6.47;3.40;;;;;;;11.49;54.14;94188.53;5073504;28;20657;-76
2021/03/25 08:33:31;;;;;;;6.60;2.63;;;;;;;11.44;55.25;94185.66;5073421;28;20392;-76
2021/03/25 08:36:04;;;;;;;6.17;2.37;;;;;;;11.59;51.79;94194.19;5073533;28;20603;-78
2021/03/25 08:38:53;;;;;;;6.00;2.60;;;;;;;11.60;51.85;94192.38;5090329;28;20283;-78
2021/03/25 08:41:23;;;;;;;6.33;2.50;;;;;;;11.78;54.12;94191.84;5093654;28;20222;-79
2021/03/25 08:43:58;;;;;;;7.50;2.63;;;;;;;11.88;54.08;94186.22;5093590;28;20672;-76
2021/03/25 08:46:31;;;;;;;5.43;2.70;;;;;;;11.93;49.17;94189.09;5093645;28;20193;-78
2021/03/25 08:49:02;;;;;;;7.63;2.80;;;;;;;11.99;50.29;94188.25;5093304;28;20691;-79
2021/03/25 08:51:33;;;;;;;8.03;3.30;;;;;;;12.04;52.50;94188.50;5093347;28;20645;-76
2021/03/25 08:54:02;;;;;;;5.57;2.40;;;;;;;12.18;50.15;94190.13;5093591;28;20306;-78
2021/03/25 08:56:39;;;;;;;6.27;2.47;;;;;;;12.40;47.85;94195.97;5093460;28;20247;-77
2021/03/25 08:59:17;;;;;;;5.73;2.60;;;;;;;12.41;48.93;94194.16;5093420;28;20247;-84
2021/03/25 09:01:46;;;;;;;7.73;3.00;;;;;;;12.52;46.37;94188.34;5093210;28;20225;-78
2021/03/25 09:04:15;;;;;;;8.00;2.40;;;;;;;12.51;47.94;94186.72;5093470;28;20209;-78
2021/03/25 09:06:44;;;;;;;7.77;3.50;;;;;;;12.49;48.55;94193.16;5093354;28;20237;-81
2021/03/25 09:09:30;;;;;;;6.30;3.07;;;;;;;12.38;50.00;94187.50;5093160;28;20330;-80
2021/03/25 09:11:57;;;;;;;6.95;3.22;;;;;;;12.41;48.02;94194.16;5092151;28;20465;-80
2021/03/25 09:14:28;;;;;;;6.90;2.80;;;;;;;12.55;45.37;94192.34;5093375;28;20209;-78
2021/03/25 09:17:02;;;;;;;12.67;3.30;;;;;;;12.58;46.44;94190.13;5093034;28;20229;-79
2021/03/25 09:19:32;;;;;;;7.40;3.33;;;;;;;12.44;46.79;94177.22;5092704;28;20444;-80
2021/03/25 09:22:00;;;;;;;11.40;3.63;;;;;;;12.57;47.59;94188.53;5092969;28;20242;-79
2021/03/25 09:24:26;;;;;;;6.77;2.97;;;;;;;12.55;48.66;94180.03;5093109;28;20592;-81
2021/03/25 09:26:55;;;;;;;6.60;3.10;;;;;;;12.59;50.32;94181.28;5093148;28;20286;-80
2021/03/25 09:29:31;;;;;;;6.63;3.07;;;;;;;12.54;50.73;94175.84;5093073;28;20212;-79
2021/03/25 09:32:33;;;;;;;7.47;2.90;;;;;;;12.53;49.73;94179.44;5092825;28;20664;-82
2021/03/25 09:35:01;;;;;;;7.10;3.30;;;;;;;12.63;50.59;94178.25;5092735;28;20652;-82
2021/03/25 09:37:32;;;;;;;9.13;3.47;;;;;;;12.78;50.18;94178.84;5093107;28;20405;-79
2021/03/25 09:40:12;;;;;;;11.37;3.70;;;;;;;13.00;51.20;94178.59;5092743;28;20680;-79
2021/03/25 09:42:40;;;;;;;11.17;3.90;;;;;;;13.14;50.62;94175.72;5092723;28;20251;-79
2021/03/25 09:45:31;;;;;;;8.97;3.63;;;;;;;13.20;50.33;94170.69;5092822;28;20534;-78
2021/03/25 09:48:00;;;;;;;10.43;3.47;;;;;;;13.37;48.36;94189.41;5093015;28;20210;-80
2021/03/25 09:50:29;;;;;;;8.73;4.10;;;;;;;13.32;47.94;94182.97;5092748;28;20683;-80
2021/03/25 09:53:16;;;;;;;9.85;4.00;;;;;;;13.20;50.20;94181.97;5092559;28;20445;-81
2021/03/25 09:56:00;;;;;;;9.73;3.77;;;;;;;13.39;49.01;94182.13;5092686;28;20198;-78
2021/03/25 09:58:43;;;;;;;8.07;3.87;;;;;;;13.24;49.25;94188.41;5092808;28;20198;-78
2021/03/25 10:01:12;;;;;;;12.50;4.10;;;;;;;13.24;49.42;94185.78;5092650;28;20568;-80
2021/03/25 10:04:26;;;;;;;14.43;4.63;;;;;;;13.43;49.54;94180.72;5092088;28;20599;-80
2021/03/25 10:06:59;;;;;;;11.47;4.13;;;;;;;13.45;49.86;94181.31;5092226;28;20209;-80
2021/03/25 10:09:58;;;;;;;14.83;5.50;;;;;;;13.66;48.28;94186.25;5092715;28;20236;-79
2021/03/25 10:12:49;;;;;;;11.43;4.37;;;;;;;13.61;46.78;94180.84;5092529;28;20648;-78
2021/03/25 10:15:42;;;;;;;10.50;4.55;;;;;;;13.50;45.46;94186.72;5092527;28;20429;-78
2021/03/25 10:18:32;;;;;;;13.77;4.47;;;;;;;13.41;45.99;94180.13;5084804;28;20603;-79
2021/03/25 10:21:03;;;;;;;14.20;4.67;;;;;;;13.27;45.37;94176.69;5092312;28;20308;-79
2021/03/25 10:23:32;;;;;;;12.65;5.00;;;;;;;13.11;46.39;94181.38;5094676;28;20441;-79
2021/03/25 10:26:16;;;;;;;11.23;4.80;;;;;;;13.25;48.28;94176.09;5096278;28;20201;-80
2021/03/25 10:28:45;;;;;;;12.73;4.70;;;;;;;13.26;46.63;94173.28;5096147;28;20190;-79
2021/03/25 10:31:16;;;;;;;15.07;5.37;;;;;;;13.18;47.33;94170.88;5096034;28;20198;-78
2021/03/25 10:33:42;;;;;;;11.17;4.50;;;;;;;13.25;48.37;94166.41;5096072;28;20206;-80
2021/03/25 10:36:15;;;;;;;13.80;4.50;;;;;;;13.33;46.33;94173.28;5096158;28;20250;-80
2021/03/25 10:38:45;;;;;;;11.00;4.53;;;;;;;13.46;47.38;94167.19;5095630;28;20197;-80
2021/03/25 10:41:18;;;;;;;10.00;4.40;;;;;;;13.76;46.42;94161.41;5095818;28;20226;-80
2021/03/25 10:43:49;;;;;;;9.57;4.00;;;;;;;13.82;45.50;94165.78;5095861;28;20198;-80
2021/03/25 10:46:29;;;;;;;15.43;5.20;;;;;;;13.80;47.43;94157.31;5095944;28;20210;-81
2021/03/25 10:49:00;;;;;;;11.50;4.90;;;;;;;13.96;45.55;94159.44;5095955;28;20287;-79
2021/03/25 10:51:28;;;;;;;11.87;4.23;;;;;;;14.07;46.99;94155.31;5095835;28;20228;-80
2021/03/25 10:53:57;;;;;;;10.73;4.63;;;;;;;14.09;44.99;94145.44;5095608;28;20194;-81
2021/03/25 10:56:28;;;;;;;12.03;4.50;;;;;;;14.12;47.75;94142.41;5095504;28;20198;-79
2021/03/25 10:59:00;;;;;;;11.23;4.10;;;;;;;14.18;45.04;94138.09;5095648;28;20190;-79
2021/03/25 11:01:29;;;;;;;12.90;4.70;;;;;;;13.97;46.91;94131.38;5095549;28;20218;-80
2021/03/25 11:03:55;;;;;;;9.30;4.27;;;;;;;13.93;48.84;94132.81;5095655;28;20288;-79
2021/03/25 11:06:32;;;;;;;10.50;3.57;;;;;;;13.55;46.12;94144.94;5095453;28;20205;-80
2021/03/25 11:09:09;;;;;;;9.87;4.27;;;;;;;13.71;45.17;94148.09;5095391;28;20201;-79
2021/03/25 11:11:37;;;;;;;9.50;4.10;;;;;;;13.86;44.24;94130.25;5095482;28;20205;-80
2021/03/25 11:14:09;;;;;;;6.17;2.80;;;;;;;13.90;43.28;94136.66;5095440;28;20202;-80
2021/03/25 11:16:35;;;;;;;8.23;3.53;;;;;;;13.71;44.34;94143.66;5095399;28;20542;-80
2021/03/25 11:19:06;;;;;;;8.77;3.70;;;;;;;13.74;44.65;94137.16;5094879;28;20226;-79
2021/03/25 11:21:35;;;;;;;9.60;3.93;;;;;;;13.84;45.53;94132.28;5095073;28;20590;-81
2021/03/25 11:24:07;;;;;;;8.00;3.70;;;;;;;14.10;47.41;94126.03;5095210;28;20203;-80
2021/03/25 11:26:34;;;;;;;8.43;3.47;;;;;;;14.13;45.37;94120.34;5095318;28;20285;-79
2021/03/25 11:29:01;;;;;;;8.57;3.43;;;;;;;14.55;43.07;94127.69;5095107;28;20194;-79
2021/03/25 11:31:29;;;;;;;7.40;3.60;;;;;;;14.46;44.36;94131.63;5094860;28;20293;-79
2021/03/25 11:33:56;;;;;;;7.17;3.47;;;;;;;14.10;43.76;94125.22;5094903;28;20201;-79
2021/03/25 11:36:38;;;;;;;7.47;3.63;;;;;;;14.03;45.13;94118.19;5095052;28;20237;-79
2021/03/25 11:39:12;;;;;;;7.13;3.20;;;;;;;14.23;46.70;94104.13;5094890;28;20228;-81
2021/03/25 11:41:39;;;;;;;7.33;3.27;;;;;;;14.46;44.96;94108.78;5094818;28;20263;-80
2021/03/25 11:44:07;;;;;;;6.97;3.27;;;;;;;14.76;41.51;94114.19;5094600;28;20194;-81
2021/03/25 11:46:36;;;;;;;10.23;3.13;;;;;;;15.03;47.09;94103.38;5094587;28;20206;-80
2021/03/25 11:49:09;;;;;;;6.53;2.93;;;;;;;15.43;43.65;94105.53;5094738;28;20259;-80
2021/03/25 11:51:40;;;;;;;7.57;3.00;;;;;;;15.48;41.62;94113.56;5094558;28;20653;-80
2021/03/25 11:54:24;;;;;;;6.00;3.17;;;;;;;15.53;41.60;94108.44;5094650;28;20267;-80
2021/03/25 11:56:52;;;;;;;7.70;3.33;;;;;;;15.52;42.09;94104.22;5094372;28;20202;-80